createdAt,value
2019-05-14T00:06:21.735Z,2.50
2019-05-14T00:14:40.264Z,2.90
2019-05-14T00:22:57.880Z,3.10
2019-05-14T00:31:15.557Z,2.73
2019-05-14T00:39:33.105Z,2.10
2019-05-14T00:47:52.488Z,2.40
2019-05-14T00:56:11.054Z,2.40
2019-05-14T01:04:28.841Z,2.73
2019-05-14T01:12:46.464Z,2.47
2019-05-14T01:21:03.972Z,2.80
2019-05-14T01:29:21.930Z,2.53
2019-05-14T01:37:41.583Z,2.23
2019-05-14T01:46:01.614Z,2.67
2019-05-14T01:54:18.328Z,2.27
2019-05-14T02:02:35.793Z,2.53
2019-05-14T02:10:53.313Z,2.40
2019-05-14T02:19:11.553Z,2.50
2019-05-14T02:27:32.639Z,2.62
2019-05-14T02:35:49.429Z,2.40
2019-05-14T02:44:09.843Z,3.10
2019-05-14T02:52:29.033Z,2.40
2019-05-14T03:00:45.604Z,2.50
2019-05-14T03:09:05.241Z,2.40
2019-05-14T03:17:23.005Z,2.90
2019-05-14T03:25:40.531Z,2.70
2019-05-14T03:34:03.041Z,3.03
2019-05-14T03:42:19.320Z,3.23
2019-05-14T03:50:38.930Z,3.43
2019-05-14T03:58:56.168Z,3.23
2019-05-14T04:07:14.381Z,3.47
2019-05-14T04:15:33.378Z,3.33
2019-05-14T04:23:51.459Z,3.63
2019-05-14T04:32:09.657Z,4.05
2019-05-14T04:40:29.707Z,2.92
2019-05-14T04:48:50.032Z,3.37
2019-05-14T04:57:05.711Z,2.50
2019-05-14T05:05:23.141Z,3.20
2019-05-14T05:13:40.651Z,2.70
2019-05-14T05:21:58.693Z,3.20
2019-05-14T05:30:18.844Z,3.75
2019-05-14T05:38:35.585Z,3.10
2019-05-14T05:46:53.523Z,3.33
2019-05-14T05:55:11.168Z,4.67
2019-05-14T06:03:30.256Z,4.00
2019-05-14T06:11:48.808Z,3.27
2019-05-14T06:20:08.541Z,3.10
2019-05-14T06:28:30.188Z,3.20
2019-05-14T06:36:45.332Z,3.67
2019-05-14T06:45:02.752Z,3.50
2019-05-14T06:53:20.200Z,3.50
2019-05-14T07:01:38.409Z,4.03
2019-05-14T07:09:58.082Z,3.80
2019-05-14T07:18:15.242Z,4.20
2019-05-14T07:26:32.694Z,2.70
2019-05-14T07:34:50.108Z,3.47
2019-05-14T07:43:09.001Z,2.80
2019-05-14T07:51:28.230Z,3.20
2019-05-14T07:59:48.222Z,3.80
2019-05-14T08:08:26.230Z,2.30
2019-05-14T08:16:43.688Z,1.90
2019-05-14T08:25:01.142Z,2.00
2019-05-14T08:33:18.888Z,2.20
2019-05-14T08:41:38.415Z,2.42
2019-05-14T08:49:55.518Z,2.40
2019-05-14T08:58:13.969Z,2.70
2019-05-14T09:06:31.780Z,1.97
2019-05-14T09:14:49.268Z,1.98
2019-05-14T09:23:09.157Z,2.67
2019-05-14T09:31:25.881Z,2.70
2019-05-14T09:39:43.326Z,3.05
2019-05-14T09:48:00.770Z,2.00
2019-05-14T09:56:18.831Z,2.30
2019-05-14T10:05:03.572Z,2.00
2019-05-14T10:13:21.023Z,2.30
2019-05-14T10:22:15.041Z,2.53
2019-05-14T10:30:32.587Z,2.23
2019-05-14T10:38:50.047Z,1.97
2019-05-14T10:47:09.308Z,1.90
2019-05-14T10:55:27.935Z,2.03
2019-05-14T11:03:48.235Z,2.10
2019-05-14T11:12:04.894Z,2.10
2019-05-14T11:20:22.410Z,2.62
2019-05-14T11:28:39.925Z,2.60
2019-05-14T11:36:58.977Z,1.85
2019-05-14T11:45:17.053Z,2.27
2019-05-14T11:53:34.526Z,1.77
2019-05-14T12:01:54.856Z,2.13
2019-05-14T12:10:11.905Z,1.70
2019-05-14T12:18:29.362Z,1.92
2019-05-14T12:26:48.900Z,2.13
2019-05-14T12:35:08.449Z,2.27
2019-05-14T12:43:27.987Z,1.90
2019-05-14T12:51:44.592Z,2.40
2019-05-14T13:00:02.300Z,2.50
2019-05-14T13:08:19.797Z,2.47
2019-05-14T13:25:39.088Z,1.93
2019-05-14T13:33:56.127Z,2.33
2019-05-14T13:42:13.631Z,2.77
2019-05-14T13:50:31.094Z,1.90
2019-05-14T13:58:49.066Z,1.73
2019-05-14T14:07:09.083Z,1.80
2019-05-14T14:15:26.071Z,2.60
2019-05-14T14:23:49.462Z,1.90
2019-05-14T14:32:05.830Z,2.13
2019-05-14T14:40:23.587Z,1.80
2019-05-14T14:48:41.201Z,1.97
2019-05-14T14:56:59.252Z,1.90
2019-05-14T15:05:19.724Z,1.77
2019-05-14T15:13:38.583Z,2.30
2019-05-14T15:21:55.834Z,2.23
2019-05-14T15:30:13.637Z,1.90
2019-05-14T15:38:31.134Z,2.37
2019-05-14T15:46:49.239Z,2.10
2019-05-14T15:55:08.654Z,2.63
2019-05-14T16:03:27.972Z,2.30
2019-05-14T16:11:45.538Z,1.93
2019-05-14T16:20:03.098Z,2.00
2019-05-14T16:28:20.662Z,2.23
2019-05-14T16:36:41.336Z,2.27
2019-05-14T16:44:57.593Z,1.77
2019-05-14T16:53:15.046Z,1.73
2019-05-14T17:01:33.669Z,2.40
2019-05-14T17:09:51.445Z,2.13
2019-05-14T17:18:09.076Z,1.98
2019-05-14T17:26:28.153Z,2.33
2019-05-14T17:34:45.758Z,1.87
2019-05-14T17:43:03.578Z,1.90
2019-05-14T17:51:21.325Z,2.80
2019-05-14T17:59:39.126Z,2.73
2019-05-14T18:07:59.360Z,2.83
2019-05-14T18:16:16.021Z,2.67
2019-05-14T18:24:33.545Z,2.40
2019-05-14T18:32:51.068Z,3.43
2019-05-14T18:41:08.795Z,2.30
2019-05-14T18:49:28.768Z,2.60
2019-05-14T18:57:45.829Z,2.60
2019-05-14T19:06:03.408Z,3.13
2019-05-14T19:14:20.859Z,2.60
2019-05-14T19:22:39.468Z,2.30
2019-05-14T19:30:59.583Z,2.30
2019-05-14T19:39:18.619Z,3.10
2019-05-14T19:47:35.779Z,1.80
2019-05-14T19:55:55.023Z,2.70
2019-05-14T20:04:12.801Z,2.43
2019-05-14T20:12:30.302Z,2.20
2019-05-14T20:20:49.284Z,2.20
2019-05-14T20:29:08.736Z,2.50
2019-05-14T20:37:26.184Z,2.53
2019-05-14T20:45:43.620Z,2.47
2019-05-14T20:54:01.085Z,2.40
2019-05-14T21:02:18.749Z,2.80
2019-05-14T21:10:38.433Z,2.40
2019-05-14T21:18:56.079Z,2.60
2019-05-14T21:27:13.734Z,2.37
2019-05-14T21:35:31.182Z,2.30
2019-05-14T21:43:49.291Z,2.53
2019-05-14T21:52:08.899Z,2.45
2019-05-14T22:00:32.288Z,3.47
2019-05-14T22:08:50.110Z,2.77
2019-05-14T22:17:07.986Z,3.17
2019-05-14T22:25:25.651Z,2.90
2019-05-14T22:33:43.297Z,2.40
2019-05-14T22:42:01.207Z,2.50
2019-05-14T22:50:18.952Z,2.30
2019-05-14T22:58:38.321Z,2.70
2019-05-14T23:06:55.658Z,2.30
2019-05-14T23:15:13.227Z,2.83
2019-05-14T23:23:30.823Z,2.87
2019-05-14T23:31:48.836Z,2.33
2019-05-14T23:40:08.572Z,2.60
2019-05-14T23:48:27.455Z,2.43
2019-05-14T23:56:45.065Z,3.17
